sensor_id;sensor_type;location;lat;lon;timestamp;temperature;humidity
33007;DHT22;19361;51.598;7.650;2023-05-07T00:00:29;17.80;67.20
33007;DHT22;19361;51.598;7.650;2023-05-07T00:05:50;17.70;67.30
33007;DHT22;19361;51.598;7.650;2023-05-07T00:11:13;17.60;67.50
33007;DHT22;19361;51.598;7.650;2023-05-07T00:16:34;17.60;67.70
33007;DHT22;19361;51.598;7.650;2023-05-07T00:21:55;17.60;67.80
33007;DHT22;19361;51.598;7.650;2023-05-07T00:27:17;17.60;68.10
33007;DHT22;19361;51.598;7.650;2023-05-07T00:32:38;17.60;68.10
33007;DHT22;19361;51.598;7.650;2023-05-07T00:37:59;17.60;68.20
33007;DHT22;19361;51.598;7.650;2023-05-07T00:43:20;17.60;68.10
33007;DHT22;19361;51.598;7.650;2023-05-07T00:48:41;17.60;68.20
33007;DHT22;19361;51.598;7.650;2023-05-07T00:54:03;17.60;68.30
33007;DHT22;19361;51.598;7.650;2023-05-07T00:59:24;17.60;68.30
33007;DHT22;19361;51.598;7.650;2023-05-07T01:04:45;17.60;68.20
33007;DHT22;19361;51.598;7.650;2023-05-07T01:10:07;17.60;68.30
33007;DHT22;19361;51.598;7.650;2023-05-07T01:15:29;17.70;68.40
33007;DHT22;19361;51.598;7.650;2023-05-07T01:20:51;17.60;68.30
33007;DHT22;19361;51.598;7.650;2023-05-07T01:26:12;17.70;68.40
33007;DHT22;19361;51.598;7.650;2023-05-07T01:31:34;17.60;68.40
33007;DHT22;19361;51.598;7.650;2023-05-07T01:36:56;17.60;68.80
33007;DHT22;19361;51.598;7.650;2023-05-07T01:42:19;17.60;68.50
33007;DHT22;19361;51.598;7.650;2023-05-07T01:47:40;17.60;68.60
33007;DHT22;19361;51.598;7.650;2023-05-07T01:53:01;17.60;68.60
33007;DHT22;19361;51.598;7.650;2023-05-07T01:58:23;17.50;68.60
33007;DHT22;19361;51.598;7.650;2023-05-07T02:03:44;17.50;68.80
33007;DHT22;19361;51.598;7.650;2023-05-07T02:09:05;17.40;68.70
33007;DHT22;19361;51.598;7.650;2023-05-07T02:14:26;17.50;68.80
33007;DHT22;19361;51.598;7.650;2023-05-07T02:19:47;17.40;68.80
33007;DHT22;19361;51.598;7.650;2023-05-07T02:25:08;17.30;68.70
33007;DHT22;19361;51.598;7.650;2023-05-07T02:30:29;17.30;68.90
33007;DHT22;19361;51.598;7.650;2023-05-07T02:35:50;17.30;69.00
33007;DHT22;19361;51.598;7.650;2023-05-07T02:41:12;17.30;69.00
33007;DHT22;19361;51.598;7.650;2023-05-07T02:46:33;17.20;69.40
33007;DHT22;19361;51.598;7.650;2023-05-07T02:51:54;17.20;69.00
33007;DHT22;19361;51.598;7.650;2023-05-07T02:57:16;17.20;69.00
33007;DHT22;19361;51.598;7.650;2023-05-07T03:02:37;17.20;69.10
33007;DHT22;19361;51.598;7.650;2023-05-07T03:07:58;17.10;69.20
33007;DHT22;19361;51.598;7.650;2023-05-07T03:13:19;17.10;69.20
33007;DHT22;19361;51.598;7.650;2023-05-07T03:18:40;17.10;69.30
33007;DHT22;19361;51.598;7.650;2023-05-07T03:24:01;17.00;69.30
33007;DHT22;19361;51.598;7.650;2023-05-07T03:29:22;17.00;69.40
33007;DHT22;19361;51.598;7.650;2023-05-07T03:34:43;17.00;69.50
33007;DHT22;19361;51.598;7.650;2023-05-07T03:40:05;17.00;69.60
33007;DHT22;19361;51.598;7.650;2023-05-07T03:45:26;17.00;69.70
33007;DHT22;19361;51.598;7.650;2023-05-07T03:50:48;17.00;69.70
33007;DHT22;19361;51.598;7.650;2023-05-07T03:56:09;17.00;69.80
33007;DHT22;19361;51.598;7.650;2023-05-07T04:01:30;17.00;69.80
33007;DHT22;19361;51.598;7.650;2023-05-07T04:06:51;16.90;70.00
33007;DHT22;19361;51.598;7.650;2023-05-07T04:12:12;16.90;70.40
33007;DHT22;19361;51.598;7.650;2023-05-07T04:17:33;16.90;70.00
33007;DHT22;19361;51.598;7.650;2023-05-07T04:22:54;16.90;70.00
33007;DHT22;19361;51.598;7.650;2023-05-07T04:28:16;16.90;70.10
33007;DHT22;19361;51.598;7.650;2023-05-07T04:33:37;16.90;70.30
33007;DHT22;19361;51.598;7.650;2023-05-07T04:38:58;16.90;70.40
33007;DHT22;19361;51.598;7.650;2023-05-07T04:44:19;16.90;70.30
33007;DHT22;19361;51.598;7.650;2023-05-07T04:49:40;16.90;70.40
33007;DHT22;19361;51.598;7.650;2023-05-07T04:55:01;16.90;70.60
33007;DHT22;19361;51.598;7.650;2023-05-07T05:00:22;16.90;70.60
33007;DHT22;19361;51.598;7.650;2023-05-07T05:05:43;17.00;70.60
33007;DHT22;19361;51.598;7.650;2023-05-07T05:11:05;17.00;70.60
33007;DHT22;19361;51.598;7.650;2023-05-07T05:16:26;17.00;70.60
33007;DHT22;19361;51.598;7.650;2023-05-07T05:21:47;17.00;70.80
33007;DHT22;19361;51.598;7.650;2023-05-07T05:27:08;17.10;71.10
33007;DHT22;19361;51.598;7.650;2023-05-07T05:32:29;17.40;72.80
33007;DHT22;19361;51.598;7.650;2023-05-07T05:37:50;17.80;72.90
33007;DHT22;19361;51.598;7.650;2023-05-07T05:43:11;18.30;71.70
33007;DHT22;19361;51.598;7.650;2023-05-07T05:48:32;18.60;70.50
33007;DHT22;19361;51.598;7.650;2023-05-07T05:53:53;18.90;69.00
33007;DHT22;19361;51.598;7.650;2023-05-07T05:59:14;19.00;68.30
33007;DHT22;19361;51.598;7.650;2023-05-07T06:04:35;18.90;67.70
33007;DHT22;19361;51.598;7.650;2023-05-07T06:09:56;18.90;67.50
33007;DHT22;19361;51.598;7.650;2023-05-07T06:15:17;18.80;68.10
33007;DHT22;19361;51.598;7.650;2023-05-07T06:20:38;18.80;68.10
33007;DHT22;19361;51.598;7.650;2023-05-07T06:26:00;18.80;67.80
33007;DHT22;19361;51.598;7.650;2023-05-07T06:31:21;18.80;68.20
33007;DHT22;19361;51.598;7.650;2023-05-07T06:36:42;18.80;68.70
33007;DHT22;19361;51.598;7.650;2023-05-07T06:42:03;18.80;69.00
33007;DHT22;19361;51.598;7.650;2023-05-07T06:47:25;18.90;68.40
33007;DHT22;19361;51.598;7.650;2023-05-07T06:52:46;18.90;68.20
33007;DHT22;19361;51.598;7.650;2023-05-07T06:58:07;18.90;68.40
33007;DHT22;19361;51.598;7.650;2023-05-07T07:03:28;19.00;68.30
33007;DHT22;19361;51.598;7.650;2023-05-07T07:08:49;19.00;68.20
33007;DHT22;19361;51.598;7.650;2023-05-07T07:14:10;19.00;68.10
33007;DHT22;19361;51.598;7.650;2023-05-07T07:19:31;19.00;68.00
33007;DHT22;19361;51.598;7.650;2023-05-07T07:24:53;19.00;67.80
33007;DHT22;19361;51.598;7.650;2023-05-07T07:30:14;19.00;67.90
33007;DHT22;19361;51.598;7.650;2023-05-07T07:35:35;19.10;67.60
33007;DHT22;19361;51.598;7.650;2023-05-07T07:40:56;19.10;67.60
33007;DHT22;19361;51.598;7.650;2023-05-07T07:46:17;19.20;67.70
33007;DHT22;19361;51.598;7.650;2023-05-07T07:51:38;19.30;67.80
33007;DHT22;19361;51.598;7.650;2023-05-07T07:56:59;19.40;67.80
33007;DHT22;19361;51.598;7.650;2023-05-07T08:02:20;19.50;67.30
33007;DHT22;19361;51.598;7.650;2023-05-07T08:07:41;19.60;66.90
33007;DHT22;19361;51.598;7.650;2023-05-07T08:13:02;19.70;67.20
33007;DHT22;19361;51.598;7.650;2023-05-07T08:18:25;19.80;66.60
33007;DHT22;19361;51.598;7.650;2023-05-07T08:23:46;19.90;66.20
33007;DHT22;19361;51.598;7.650;2023-05-07T08:29:07;20.10;66.20
33007;DHT22;19361;51.598;7.650;2023-05-07T08:34:28;20.20;66.10
33007;DHT22;19361;51.598;7.650;2023-05-07T08:39:49;20.40;65.70
33007;DHT22;19361;51.598;7.650;2023-05-07T08:45:11;20.50;65.20
33007;DHT22;19361;51.598;7.650;2023-05-07T08:50:32;20.70;65.20
33007;DHT22;19361;51.598;7.650;2023-05-07T08:55:56;20.80;64.50
33007;DHT22;19361;51.598;7.650;2023-05-07T09:01:17;20.90;64.70
33007;DHT22;19361;51.598;7.650;2023-05-07T09:06:39;21.00;64.40
33007;DHT22;19361;51.598;7.650;2023-05-07T09:12:02;21.20;64.20
33007;DHT22;19361;51.598;7.650;2023-05-07T09:17:24;21.30;63.60
33007;DHT22;19361;51.598;7.650;2023-05-07T09:22:45;21.40;63.00
33007;DHT22;19361;51.598;7.650;2023-05-07T09:28:06;21.40;63.30
33007;DHT22;19361;51.598;7.650;2023-05-07T09:33:28;21.60;63.90
33007;DHT22;19361;51.598;7.650;2023-05-07T09:38:49;21.70;63.60
33007;DHT22;19361;51.598;7.650;2023-05-07T09:44:10;21.90;62.90
33007;DHT22;19361;51.598;7.650;2023-05-07T09:49:34;22.00;62.50
33007;DHT22;19361;51.598;7.650;2023-05-07T09:54:57;22.10;61.80
33007;DHT22;19361;51.598;7.650;2023-05-07T10:00:21;22.20;61.10
33007;DHT22;19361;51.598;7.650;2023-05-07T10:05:43;22.30;60.80
33007;DHT22;19361;51.598;7.650;2023-05-07T10:11:06;22.40;61.00
33007;DHT22;19361;51.598;7.650;2023-05-07T10:16:31;22.40;59.90
33007;DHT22;19361;51.598;7.650;2023-05-07T10:22:01;22.50;59.80
33007;DHT22;19361;51.598;7.650;2023-05-07T10:27:25;22.60;59.60
33007;DHT22;19361;51.598;7.650;2023-05-07T10:32:49;22.70;60.20
33007;DHT22;19361;51.598;7.650;2023-05-07T10:38:11;22.80;59.40
33007;DHT22;19361;51.598;7.650;2023-05-07T10:43:43;23.00;59.10
33007;DHT22;19361;51.598;7.650;2023-05-07T10:54:28;23.20;57.80
33007;DHT22;19361;51.598;7.650;2023-05-07T10:59:49;23.20;57.70
33007;DHT22;19361;51.598;7.650;2023-05-07T11:05:22;23.10;58.00
33007;DHT22;19361;51.598;7.650;2023-05-07T11:10:57;23.20;57.90
33007;DHT22;19361;51.598;7.650;2023-05-07T11:16:23;23.30;57.20
33007;DHT22;19361;51.598;7.650;2023-05-07T11:21:45;23.40;56.90
33007;DHT22;19361;51.598;7.650;2023-05-07T11:27:06;23.50;56.70
33007;DHT22;19361;51.598;7.650;2023-05-07T11:32:29;23.60;56.90
33007;DHT22;19361;51.598;7.650;2023-05-07T11:37:59;23.70;55.10
33007;DHT22;19361;51.598;7.650;2023-05-07T11:43:20;23.70;53.70
33007;DHT22;19361;51.598;7.650;2023-05-07T11:48:43;23.70;54.00
33007;DHT22;19361;51.598;7.650;2023-05-07T11:54:04;23.70;53.60
33007;DHT22;19361;51.598;7.650;2023-05-07T11:59:29;23.70;53.60
33007;DHT22;19361;51.598;7.650;2023-05-07T12:04:53;23.80;53.70
33007;DHT22;19361;51.598;7.650;2023-05-07T12:10:15;23.90;53.40
33007;DHT22;19361;51.598;7.650;2023-05-07T12:15:37;23.90;53.00
33007;DHT22;19361;51.598;7.650;2023-05-07T12:20:59;23.90;52.20
33007;DHT22;19361;51.598;7.650;2023-05-07T12:26:20;23.90;52.70
33007;DHT22;19361;51.598;7.650;2023-05-07T12:31:42;24.00;52.40
33007;DHT22;19361;51.598;7.650;2023-05-07T12:37:03;24.00;51.70
33007;DHT22;19361;51.598;7.650;2023-05-07T12:42:24;24.10;52.70
33007;DHT22;19361;51.598;7.650;2023-05-07T12:47:47;24.10;52.00
33007;DHT22;19361;51.598;7.650;2023-05-07T12:53:10;24.30;51.90
33007;DHT22;19361;51.598;7.650;2023-05-07T12:58:34;24.40;51.60
33007;DHT22;19361;51.598;7.650;2023-05-07T13:03:58;24.50;51.50
33007;DHT22;19361;51.598;7.650;2023-05-07T13:09:21;24.60;51.30
33007;DHT22;19361;51.598;7.650;2023-05-07T13:14:42;24.60;51.10
33007;DHT22;19361;51.598;7.650;2023-05-07T13:20:03;24.60;51.50
33007;DHT22;19361;51.598;7.650;2023-05-07T13:25:26;24.60;51.70
33007;DHT22;19361;51.598;7.650;2023-05-07T13:30:47;24.50;52.30
33007;DHT22;19361;51.598;7.650;2023-05-07T13:36:08;24.40;52.40
33007;DHT22;19361;51.598;7.650;2023-05-07T13:41:29;24.30;52.80
33007;DHT22;19361;51.598;7.650;2023-05-07T13:46:51;24.20;52.70
33007;DHT22;19361;51.598;7.650;2023-05-07T13:52:12;24.10;52.90
33007;DHT22;19361;51.598;7.650;2023-05-07T13:57:33;24.00;53.40
33007;DHT22;19361;51.598;7.650;2023-05-07T14:02:55;23.90;52.90
33007;DHT22;19361;51.598;7.650;2023-05-07T14:08:16;23.80;52.80
33007;DHT22;19361;51.598;7.650;2023-05-07T14:13:40;23.70;52.50
33007;DHT22;19361;51.598;7.650;2023-05-07T14:19:01;23.60;52.20
33007;DHT22;19361;51.598;7.650;2023-05-07T14:24:23;23.50;52.20
33007;DHT22;19361;51.598;7.650;2023-05-07T14:29:44;23.50;52.60
33007;DHT22;19361;51.598;7.650;2023-05-07T14:35:06;23.40;52.80
33007;DHT22;19361;51.598;7.650;2023-05-07T14:40:27;23.40;53.40
33007;DHT22;19361;51.598;7.650;2023-05-07T14:45:48;23.50;53.90
33007;DHT22;19361;51.598;7.650;2023-05-07T14:51:10;23.50;54.10
33007;DHT22;19361;51.598;7.650;2023-05-07T14:56:31;23.50;54.30
33007;DHT22;19361;51.598;7.650;2023-05-07T15:01:53;23.60;54.10
33007;DHT22;19361;51.598;7.650;2023-05-07T15:07:15;23.70;54.50
33007;DHT22;19361;51.598;7.650;2023-05-07T15:12:36;23.70;54.80
33007;DHT22;19361;51.598;7.650;2023-05-07T15:17:57;23.70;55.20
33007;DHT22;19361;51.598;7.650;2023-05-07T15:23:20;23.80;55.50
33007;DHT22;19361;51.598;7.650;2023-05-07T15:28:41;23.80;55.40
33007;DHT22;19361;51.598;7.650;2023-05-07T15:34:02;23.80;55.10
33007;DHT22;19361;51.598;7.650;2023-05-07T15:39:23;23.80;55.30
33007;DHT22;19361;51.598;7.650;2023-05-07T15:44:45;23.70;54.90
33007;DHT22;19361;51.598;7.650;2023-05-07T15:50:07;23.60;55.10
33007;DHT22;19361;51.598;7.650;2023-05-07T15:55:29;23.60;55.20
33007;DHT22;19361;51.598;7.650;2023-05-07T16:00:51;23.60;55.40
33007;DHT22;19361;51.598;7.650;2023-05-07T16:06:12;23.50;54.90
33007;DHT22;19361;51.598;7.650;2023-05-07T16:11:34;23.40;54.80
33007;DHT22;19361;51.598;7.650;2023-05-07T16:16:56;23.40;55.00
33007;DHT22;19361;51.598;7.650;2023-05-07T16:22:18;23.30;54.70
33007;DHT22;19361;51.598;7.650;2023-05-07T16:27:39;23.20;54.30
33007;DHT22;19361;51.598;7.650;2023-05-07T16:33:00;23.10;54.30
33007;DHT22;19361;51.598;7.650;2023-05-07T16:38:21;23.00;54.00
33007;DHT22;19361;51.598;7.650;2023-05-07T16:43:42;22.90;53.90
33007;DHT22;19361;51.598;7.650;2023-05-07T16:49:03;22.80;54.30
33007;DHT22;19361;51.598;7.650;2023-05-07T16:54:24;22.80;54.30
33007;DHT22;19361;51.598;7.650;2023-05-07T16:59:45;22.70;54.70
33007;DHT22;19361;51.598;7.650;2023-05-07T17:05:07;22.70;54.70
33007;DHT22;19361;51.598;7.650;2023-05-07T17:10:28;22.60;54.80
33007;DHT22;19361;51.598;7.650;2023-05-07T17:15:49;22.60;55.20
33007;DHT22;19361;51.598;7.650;2023-05-07T17:21:10;22.50;55.40
33007;DHT22;19361;51.598;7.650;2023-05-07T17:26:31;22.50;55.40
33007;DHT22;19361;51.598;7.650;2023-05-07T17:31:55;22.40;55.50
33007;DHT22;19361;51.598;7.650;2023-05-07T17:37:17;22.40;55.60
33007;DHT22;19361;51.598;7.650;2023-05-07T17:42:38;22.30;56.10
33007;DHT22;19361;51.598;7.650;2023-05-07T17:47:59;22.30;56.10
33007;DHT22;19361;51.598;7.650;2023-05-07T17:53:21;22.20;56.20
33007;DHT22;19361;51.598;7.650;2023-05-07T17:58:44;22.10;56.40
33007;DHT22;19361;51.598;7.650;2023-05-07T18:04:05;22.10;56.50
33007;DHT22;19361;51.598;7.650;2023-05-07T18:09:26;22.00;56.70
33007;DHT22;19361;51.598;7.650;2023-05-07T18:14:47;21.90;56.60
33007;DHT22;19361;51.598;7.650;2023-05-07T18:20:09;21.80;55.70
33007;DHT22;19361;51.598;7.650;2023-05-07T18:25:31;21.70;55.90
33007;DHT22;19361;51.598;7.650;2023-05-07T18:30:52;21.60;55.70
33007;DHT22;19361;51.598;7.650;2023-05-07T18:36:13;21.50;55.70
33007;DHT22;19361;51.598;7.650;2023-05-07T18:41:34;21.50;56.50
33007;DHT22;19361;51.598;7.650;2023-05-07T18:46:56;21.40;56.20
33007;DHT22;19361;51.598;7.650;2023-05-07T18:52:18;21.40;56.30
33007;DHT22;19361;51.598;7.650;2023-05-07T18:57:41;21.30;56.40
33007;DHT22;19361;51.598;7.650;2023-05-07T19:03:04;21.20;56.50
33007;DHT22;19361;51.598;7.650;2023-05-07T19:08:25;21.10;56.30
33007;DHT22;19361;51.598;7.650;2023-05-07T19:13:46;21.00;56.30
33007;DHT22;19361;51.598;7.650;2023-05-07T19:19:07;20.80;56.20
33007;DHT22;19361;51.598;7.650;2023-05-07T19:24:29;20.80;56.20
33007;DHT22;19361;51.598;7.650;2023-05-07T19:29:50;20.60;56.10
33007;DHT22;19361;51.598;7.650;2023-05-07T19:35:11;20.60;56.20
33007;DHT22;19361;51.598;7.650;2023-05-07T19:40:32;20.50;56.30
33007;DHT22;19361;51.598;7.650;2023-05-07T19:45:54;20.40;56.20
33007;DHT22;19361;51.598;7.650;2023-05-07T19:51:15;20.30;56.30
33007;DHT22;19361;51.598;7.650;2023-05-07T19:56:36;20.20;56.30
33007;DHT22;19361;51.598;7.650;2023-05-07T20:01:57;20.10;56.40
33007;DHT22;19361;51.598;7.650;2023-05-07T20:07:18;20.00;56.20
33007;DHT22;19361;51.598;7.650;2023-05-07T20:12:39;19.90;56.30
33007;DHT22;19361;51.598;7.650;2023-05-07T20:18:00;19.90;56.40
33007;DHT22;19361;51.598;7.650;2023-05-07T20:23:21;19.80;56.60
33007;DHT22;19361;51.598;7.650;2023-05-07T20:28:42;19.70;56.60
33007;DHT22;19361;51.598;7.650;2023-05-07T20:34:03;19.70;56.70
33007;DHT22;19361;51.598;7.650;2023-05-07T20:39:24;19.60;56.90
33007;DHT22;19361;51.598;7.650;2023-05-07T20:44:45;19.50;56.90
33007;DHT22;19361;51.598;7.650;2023-05-07T20:50:06;19.50;57.00
33007;DHT22;19361;51.598;7.650;2023-05-07T20:55:28;19.40;57.00
33007;DHT22;19361;51.598;7.650;2023-05-07T21:00:49;19.40;57.30
33007;DHT22;19361;51.598;7.650;2023-05-07T21:06:13;19.30;57.20
33007;DHT22;19361;51.598;7.650;2023-05-07T21:11:34;19.20;57.20
33007;DHT22;19361;51.598;7.650;2023-05-07T21:16:55;19.20;57.30
33007;DHT22;19361;51.598;7.650;2023-05-07T21:22:16;19.10;57.40
33007;DHT22;19361;51.598;7.650;2023-05-07T21:27:37;19.10;57.40
33007;DHT22;19361;51.598;7.650;2023-05-07T21:32:58;19.00;57.40
33007;DHT22;19361;51.598;7.650;2023-05-07T21:38:19;18.90;57.50
33007;DHT22;19361;51.598;7.650;2023-05-07T21:43:40;18.90;57.50
33007;DHT22;19361;51.598;7.650;2023-05-07T21:49:01;18.90;57.60
33007;DHT22;19361;51.598;7.650;2023-05-07T21:54:23;18.80;57.60
33007;DHT22;19361;51.598;7.650;2023-05-07T21:59:44;18.80;58.20
33007;DHT22;19361;51.598;7.650;2023-05-07T22:05:05;18.70;57.60
33007;DHT22;19361;51.598;7.650;2023-05-07T22:10:27;18.70;57.70
33007;DHT22;19361;51.598;7.650;2023-05-07T22:15:48;18.60;57.70
33007;DHT22;19361;51.598;7.650;2023-05-07T22:21:09;18.60;57.90
33007;DHT22;19361;51.598;7.650;2023-05-07T22:26:30;18.50;57.80
33007;DHT22;19361;51.598;7.650;2023-05-07T22:31:51;18.40;58.00
33007;DHT22;19361;51.598;7.650;2023-05-07T22:37:12;18.40;58.10
33007;DHT22;19361;51.598;7.650;2023-05-07T22:42:33;18.40;58.20
33007;DHT22;19361;51.598;7.650;2023-05-07T22:47:54;18.30;58.30
33007;DHT22;19361;51.598;7.650;2023-05-07T22:53:15;18.30;58.30
33007;DHT22;19361;51.598;7.650;2023-05-07T22:58:36;18.20;58.40
33007;DHT22;19361;51.598;7.650;2023-05-07T23:03:57;18.20;58.40
33007;DHT22;19361;51.598;7.650;2023-05-07T23:09:18;18.10;58.40
33007;DHT22;19361;51.598;7.650;2023-05-07T23:14:39;18.00;58.30
33007;DHT22;19361;51.598;7.650;2023-05-07T23:20:00;18.00;58.40
33007;DHT22;19361;51.598;7.650;2023-05-07T23:25:21;17.90;58.60
33007;DHT22;19361;51.598;7.650;2023-05-07T23:30:42;17.90;58.60
33007;DHT22;19361;51.598;7.650;2023-05-07T23:36:05;17.90;58.70
33007;DHT22;19361;51.598;7.650;2023-05-07T23:41:26;17.80;58.70
33007;DHT22;19361;51.598;7.650;2023-05-07T23:46:47;17.80;59.00
33007;DHT22;19361;51.598;7.650;2023-05-07T23:52:08;17.80;58.90
33007;DHT22;19361;51.598;7.650;2023-05-07T23:57:29;17.70;58.80
